Time;durP1;ratioP1;P1;durP2;ratioP2;P2;SDS_P1;SDS_P2;PMS_P1;PMS_P2;Temp;Humidity;BMP_temperature;BMP_pressure;BME280_temperature;BME280_humidity;BME280_pressure;Samples;Min_cycle;Max_cycle;Signal;HPM_P1;HPM_P2
2022/07/06 00:00:11;;;;;;;10.67;5.20;;;;;;;25.07;50.99;99347.22;5071133;28;20571;-57
2022/07/06 00:02:38;;;;;;;7.57;4.87;;;;;;;25.13;50.27;99349.59;5071077;28;20202;-57
2022/07/06 00:05:06;;;;;;;16.50;5.47;;;;;;;25.20;49.46;99349.22;5070510;28;20191;-57
2022/07/06 00:07:32;;;;;;;8.97;4.83;;;;;;;25.28;49.48;99351.50;5070979;28;20195;-57
2022/07/06 00:10:01;;;;;;;8.93;5.40;;;;;;;25.27;49.39;99341.94;5070771;28;20203;-57
2022/07/06 00:12:27;;;;;;;7.80;5.93;;;;;;;25.29;50.13;99347.09;5071090;28;20223;-57
2022/07/06 00:14:54;;;;;;;9.87;7.10;;;;;;;25.16;51.95;99336.31;5070833;28;20218;-57
2022/07/06 00:17:21;;;;;;;9.02;6.88;;;;;;;25.20;52.33;99338.72;5070507;28;20453;-57
2022/07/06 00:19:48;;;;;;;11.47;7.70;;;;;;;25.14;53.30;99335.50;5070811;28;20658;-57
2022/07/06 00:22:15;;;;;;;9.30;8.50;;;;;;;25.05;53.94;99331.50;5070506;28;20808;-57
2022/07/06 00:24:42;;;;;;;9.47;8.57;;;;;;;24.90;54.81;99337.47;5070944;28;20191;-57
2022/07/06 00:27:10;;;;;;;9.40;8.50;;;;;;;24.75;55.94;99327.56;5070781;28;20674;-57
2022/07/06 00:29:37;;;;;;;10.13;9.17;;;;;;;24.45;56.83;99336.78;5070811;28;20202;-57
2022/07/06 00:32:04;;;;;;;13.77;8.80;;;;;;;24.31;57.62;99328.66;5070716;28;20193;-57
2022/07/06 00:34:31;;;;;;;8.97;8.17;;;;;;;24.18;57.63;99325.69;5070490;28;20211;-57
2022/07/06 00:36:58;;;;;;;10.33;8.80;;;;;;;24.12;57.81;99319.84;5070533;28;20589;-57
2022/07/06 00:39:28;;;;;;;18.03;7.87;;;;;;;24.12;57.44;99315.41;5070317;28;20191;-57
2022/07/06 00:41:56;;;;;;;12.93;8.33;;;;;;;24.12;58.04;99310.16;5070598;28;20198;-57
2022/07/06 00:44:24;;;;;;;14.77;8.30;;;;;;;24.12;57.80;99302.28;5070381;28;20192;-57
2022/07/06 00:46:51;;;;;;;10.57;7.73;;;;;;;24.19;57.40;99305.53;5070171;28;20195;-57
2022/07/06 00:51:59;;;;;;;10.03;8.27;;;;;;;24.14;58.59;99307.50;5069483;28;20268;-57
2022/07/06 00:54:27;;;;;;;10.85;8.65;;;;;;;24.17;58.39;99302.97;5069191;28;20463;-57
2022/07/06 00:56:54;;;;;;;10.37;8.07;;;;;;;24.26;58.57;99296.47;5070231;28;20215;-57
2022/07/06 00:59:21;;;;;;;11.90;8.70;;;;;;;24.33;58.50;99292.69;5069844;28;20962;-57
2022/07/06 01:01:49;;;;;;;12.55;8.25;;;;;;;24.38;58.22;99274.94;5069134;28;20916;-57
2022/07/06 01:04:16;;;;;;;10.00;7.80;;;;;;;24.42;57.87;99277.34;5069929;28;20191;-57
2022/07/06 01:06:46;;;;;;;8.40;7.53;;;;;;;24.46;57.17;99272.84;5069806;28;20187;-57
2022/07/06 01:09:13;;;;;;;9.23;7.50;;;;;;;24.44;57.13;99264.19;5070194;28;20195;-57
2022/07/06 01:11:40;;;;;;;9.00;7.67;;;;;;;24.47;57.24;99259.66;5069994;28;20206;-57
2022/07/06 01:14:08;;;;;;;9.10;7.23;;;;;;;24.46;57.12;99251.81;5070102;28;20198;-66
2022/07/06 01:16:35;;;;;;;9.20;7.63;;;;;;;24.49;56.59;99236.78;5069063;28;20222;-66
2022/07/06 01:19:03;;;;;;;7.77;6.97;;;;;;;24.46;56.54;99236.06;5069906;28;20199;-67
2022/07/06 01:21:31;;;;;;;7.53;6.83;;;;;;;24.44;55.92;99237.91;5070170;28;20192;-66
2022/07/06 01:23:58;;;;;;;11.53;6.83;;;;;;;24.48;55.59;99228.97;5069932;28;20230;-66
2022/07/06 01:26:25;;;;;;;8.20;6.67;;;;;;;24.50;55.46;99224.50;5070179;28;20187;-66
2022/07/06 01:28:52;;;;;;;9.13;6.43;;;;;;;24.49;55.42;99220.16;5070041;28;20199;-66
2022/07/06 01:31:21;;;;;;;7.83;6.70;;;;;;;24.52;55.56;99218.28;5069967;28;20191;-67
2022/07/06 01:33:49;;;;;;;7.83;6.13;;;;;;;24.51;55.17;99213.06;5069999;28;20249;-66
2022/07/06 01:36:16;;;;;;;10.60;6.93;;;;;;;24.48;55.63;99211.44;5069971;28;20219;-66
2022/07/06 01:38:49;;;;;;;10.10;6.70;;;;;;;24.56;55.10;99208.44;5069510;28;20191;-67
2022/07/06 01:41:17;;;;;;;11.73;7.23;;;;;;;24.57;55.53;99205.78;5069790;28;20199;-66
2022/07/06 01:43:44;;;;;;;10.43;6.17;;;;;;;24.63;54.79;99208.13;5069585;28;20192;-66
2022/07/06 01:46:11;;;;;;;11.00;7.30;;;;;;;24.58;55.11;99196.13;5069712;28;20461;-67
2022/07/06 01:48:37;;;;;;;10.53;6.90;;;;;;;24.64;55.22;99190.56;5069448;28;20441;-67
2022/07/06 01:51:05;;;;;;;7.27;6.57;;;;;;;24.65;54.86;99189.66;5069762;28;20222;-67
2022/07/06 01:53:32;;;;;;;12.13;6.87;;;;;;;24.57;55.38;99171.63;5069689;28;20192;-67
2022/07/06 01:56:00;;;;;;;10.63;5.83;;;;;;;24.70;52.98;99186.81;5069534;28;20219;-66
2022/07/06 01:58:27;;;;;;;6.80;6.10;;;;;;;24.71;54.10;99184.13;5069555;28;20647;-66
2022/07/06 02:00:54;;;;;;;12.33;6.43;;;;;;;24.67;53.54;99180.78;5069733;28;20195;-66
2022/07/06 02:03:22;;;;;;;7.30;6.60;;;;;;;24.69;54.66;99185.97;5069458;28;20582;-68
2022/07/06 02:05:48;;;;;;;7.80;6.80;;;;;;;24.67;54.85;99182.53;5069421;28;20183;-66
2022/07/06 02:08:15;;;;;;;10.43;7.40;;;;;;;24.57;54.88;99168.13;5069057;28;20950;-66
2022/07/06 02:10:42;;;;;;;7.77;6.37;;;;;;;24.48;55.07;99171.16;5069543;28;20204;-67
2022/07/06 02:13:10;;;;;;;8.67;7.63;;;;;;;24.45;56.15;99173.94;5069720;28;20195;-66
2022/07/06 02:15:37;;;;;;;7.67;6.97;;;;;;;24.35;55.96;99167.41;5069172;28;20215;-66
2022/07/06 02:18:04;;;;;;;12.27;7.97;;;;;;;24.37;55.98;99168.16;5069730;28;20195;-66
2022/07/06 02:20:31;;;;;;;9.87;7.30;;;;;;;24.41;55.85;99167.13;5069570;28;20218;-66
2022/07/06 02:22:58;;;;;;;8.10;7.30;;;;;;;24.37;56.65;99173.41;5068764;28;20534;-66
2022/07/06 02:25:25;;;;;;;9.77;7.37;;;;;;;24.31;57.50;99169.28;5069186;28;20556;-66
2022/07/06 02:27:52;;;;;;;9.43;8.53;;;;;;;24.29;57.42;99165.91;5071057;28;20198;-67
2022/07/06 02:30:20;;;;;;;11.70;8.27;;;;;;;24.29;58.20;99165.91;5073113;28;20293;-67
2022/07/06 02:32:47;;;;;;;15.63;9.30;;;;;;;24.23;58.67;99168.78;5072594;28;20191;-67
2022/07/06 02:35:14;;;;;;;12.70;8.87;;;;;;;24.20;58.49;99168.91;5072684;28;20623;-66
2022/07/06 02:37:41;;;;;;;10.47;9.33;;;;;;;24.13;58.55;99171.88;5072938;28;20199;-66
2022/07/06 02:40:09;;;;;;;10.30;8.40;;;;;;;24.02;58.85;99181.06;5072676;28;20677;-66
2022/07/06 02:42:36;;;;;;;12.50;9.53;;;;;;;24.07;58.69;99184.34;5072729;28;20191;-66
2022/07/06 02:45:03;;;;;;;13.77;9.90;;;;;;;24.09;59.10;99181.66;5072643;28;20503;-66
2022/07/06 02:47:32;;;;;;;12.77;9.57;;;;;;;24.14;59.44;99187.59;5072844;28;20194;-66
2022/07/06 02:50:00;;;;;;;11.77;10.23;;;;;;;24.18;59.74;99183.03;5072703;28;20570;-67
2022/07/06 02:52:27;;;;;;;14.33;10.07;;;;;;;24.20;59.32;99191.72;5072637;28;20191;-66
2022/07/06 02:54:54;;;;;;;15.67;10.70;;;;;;;24.16;59.46;99185.75;5072707;28;20199;-66
2022/07/06 02:57:20;;;;;;;16.83;10.30;;;;;;;24.12;59.89;99192.03;5072354;28;20311;-66
2022/07/06 02:59:49;;;;;;;14.15;9.73;;;;;;;24.16;59.73;99198.88;5072177;28;20430;-66
2022/07/06 03:02:16;;;;;;;11.07;8.55;;;;;;;24.23;58.96;99202.09;5072216;28;20187;-66
2022/07/06 03:04:44;;;;;;;10.63;8.00;;;;;;;24.23;59.25;99200.28;5072282;28;20195;-67
2022/07/06 03:07:11;;;;;;;9.80;8.70;;;;;;;24.30;58.68;99199.13;5071349;28;20268;-67
2022/07/06 03:09:38;;;;;;;11.30;8.10;;;;;;;24.34;58.71;99200.69;5071980;28;20199;-67
2022/07/06 03:12:06;;;;;;;12.10;8.37;;;;;;;24.44;58.58;99206.38;5071783;28;20214;-67
2022/07/06 03:14:33;;;;;;;11.53;8.07;;;;;;;24.56;57.34;99205.81;5069907;28;20222;-67
2022/07/06 03:16:59;;;;;;;13.70;7.93;;;;;;;24.60;57.48;99204.78;5071996;28;20527;-66
2022/07/06 03:19:26;;;;;;;14.67;8.20;;;;;;;24.63;58.36;99210.75;5071951;28;20196;-66
2022/07/06 03:21:54;;;;;;;11.88;8.57;;;;;;;24.63;57.96;99207.28;5071855;28;20448;-66
2022/07/06 03:24:21;;;;;;;9.83;8.07;;;;;;;24.69;57.83;99212.25;5071993;28;20697;-67
2022/07/06 03:26:48;;;;;;;9.97;8.07;;;;;;;24.75;58.06;99211.13;5071906;28;20198;-66
2022/07/06 03:29:15;;;;;;;18.03;9.00;;;;;;;24.76;58.33;99211.03;5071938;28;20188;-66
2022/07/06 03:31:42;;;;;;;10.00;8.23;;;;;;;24.82;57.48;99215.19;5071782;28;20191;-67
2022/07/06 03:34:09;;;;;;;10.87;8.07;;;;;;;24.90;56.43;99220.94;5071572;28;20191;-66
2022/07/06 03:36:35;;;;;;;10.33;8.03;;;;;;;24.87;56.75;99221.94;5071442;28;20207;-66
2022/07/06 03:39:04;;;;;;;13.13;8.27;;;;;;;24.77;56.44;99228.53;5070652;28;20286;-66
2022/07/06 03:41:32;;;;;;;11.97;7.93;;;;;;;24.83;56.45;99227.41;5071804;28;20281;-66
2022/07/06 03:43:59;;;;;;;15.87;8.93;;;;;;;24.89;56.10;99227.13;5071762;28;21007;-66
2022/07/06 03:46:26;;;;;;;10.07;8.37;;;;;;;24.99;56.50;99220.53;5071807;28;20199;-67
2022/07/06 03:48:53;;;;;;;11.33;8.30;;;;;;;25.10;56.46;99223.50;5071625;28;20689;-67
2022/07/06 03:51:20;;;;;;;11.20;8.10;;;;;;;25.11;56.65;99226.06;5071730;28;20232;-67
2022/07/06 03:53:46;;;;;;;9.87;8.77;;;;;;;25.19;55.85;99225.69;5071391;28;20191;-67
2022/07/06 03:56:31;;;;;;;11.83;8.20;;;;;;;25.24;55.54;99227.16;5071691;28;20280;-67
2022/07/06 03:59:00;;;;;;;14.07;9.27;;;;;;;25.35;55.07;99237.22;5070378;28;20465;-67
2022/07/06 04:01:27;;;;;;;9.30;8.37;;;;;;;25.38;54.39;99234.41;5071162;28;20248;-66
2022/07/06 04:03:54;;;;;;;15.27;8.50;;;;;;;25.29;54.88;99228.75;5070849;28;20198;-67
2022/07/06 04:06:21;;;;;;;12.10;9.63;;;;;;;25.35;56.40;99220.56;5071332;28;20191;-66
2022/07/06 04:08:48;;;;;;;14.53;9.07;;;;;;;25.31;57.81;99225.13;5070102;28;20598;-66
2022/07/06 04:11:16;;;;;;;13.57;10.23;;;;;;;25.32;58.38;99224.19;5070749;28;20207;-67
2022/07/06 04:13:43;;;;;;;11.73;10.27;;;;;;;25.35;58.78;99220.56;5069754;28;20612;-66
2022/07/06 04:16:10;;;;;;;13.23;11.83;;;;;;;25.56;59.02;99223.03;5070768;28;20227;-66
2022/07/06 04:18:37;;;;;;;12.63;9.87;;;;;;;25.57;59.29;99224.72;5071267;28;20202;-67
2022/07/06 04:21:04;;;;;;;13.10;10.67;;;;;;;25.63;59.63;99231.47;5070019;28;20206;-66
2022/07/06 04:23:31;;;;;;;16.33;11.37;;;;;;;25.72;59.57;99234.50;5070743;28;20235;-66
2022/07/06 04:25:58;;;;;;;12.77;10.87;;;;;;;25.62;60.40;99232.41;5069307;28;20197;-66
2022/07/06 04:28:26;;;;;;;14.85;11.73;;;;;;;25.51;61.43;99235.56;5069303;28;20194;-67
2022/07/06 04:30:53;;;;;;;11.90;10.80;;;;;;;25.58;61.25;99231.69;5067785;28;20195;-67
2022/07/06 04:33:20;;;;;;;15.20;11.37;;;;;;;25.59;61.42;99228.16;5062178;28;20208;-67
2022/07/06 04:35:47;;;;;;;11.90;10.80;;;;;;;25.57;61.53;99227.34;5059340;28;20192;-66
2022/07/06 04:38:14;;;;;;;12.53;11.23;;;;;;;25.57;61.60;99230.00;5060285;28;20938;-67
2022/07/06 04:40:40;;;;;;;11.83;10.67;;;;;;;25.57;61.76;99229.16;5061061;28;20200;-66
2022/07/06 04:43:07;;;;;;;12.57;11.27;;;;;;;25.54;62.06;99229.31;5059229;28;20199;-67
2022/07/06 04:45:36;;;;;;;13.03;11.63;;;;;;;25.68;61.60;99226.84;5062783;28;20208;-67
2022/07/06 04:48:02;;;;;;;12.50;11.40;;;;;;;25.90;60.89;99227.50;5064757;28;20586;-67
2022/07/06 04:50:29;;;;;;;12.87;11.77;;;;;;;26.09;60.44;99228.25;5070066;28;20207;-67
2022/07/06 04:52:56;;;;;;;15.27;10.87;;;;;;;26.23;60.20;99227.59;5070141;28;20199;-67
2022/07/06 04:55:23;;;;;;;12.93;11.90;;;;;;;26.28;59.93;99238.72;5065420;28;21127;-67
2022/07/06 04:57:51;;;;;;;12.43;11.10;;;;;;;26.19;60.24;99232.16;5059580;28;20310;-67
2022/07/06 05:00:18;;;;;;;12.27;10.97;;;;;;;26.20;60.62;99231.25;5063370;28;20696;-67
2022/07/06 05:02:46;;;;;;;12.75;11.45;;;;;;;26.11;60.89;99236.06;5060424;28;20192;-67
2022/07/06 05:05:13;;;;;;;11.05;10.02;;;;;;;26.05;61.00;99231.97;5059675;28;20205;-67
2022/07/06 05:07:40;;;;;;;12.68;11.40;;;;;;;26.02;61.53;99239.16;5058044;28;20663;-67
2022/07/06 05:10:08;;;;;;;15.13;11.47;;;;;;;26.11;61.24;99234.28;5060293;28;20274;-67
2022/07/06 05:12:35;;;;;;;13.73;10.70;;;;;;;26.28;60.70;99234.31;5058720;28;20445;-67
2022/07/06 05:15:02;;;;;;;15.10;11.13;;;;;;;26.45;60.38;99235.22;5057836;28;20264;-66
2022/07/06 05:17:29;;;;;;;11.85;10.75;;;;;;;26.57;59.94;99235.41;5059266;28;20191;-67
2022/07/06 05:19:58;;;;;;;11.50;10.30;;;;;;;26.62;59.45;99243.06;5064480;28;20195;-66
2022/07/06 05:22:25;;;;;;;12.13;10.87;;;;;;;26.60;59.59;99232.63;5069294;28;20231;-66
2022/07/06 05:24:52;;;;;;;13.63;10.82;;;;;;;26.72;59.21;99253.06;5068870;28;21001;-67
2022/07/06 05:27:19;;;;;;;12.32;11.23;;;;;;;26.79;58.81;99256.25;5064633;28;20550;-67
2022/07/06 05:29:45;;;;;;;13.53;10.60;;;;;;;26.86;58.68;99260.28;5059059;28;20266;-68
2022/07/06 05:32:12;;;;;;;11.70;10.68;;;;;;;26.82;58.52;99258.72;5060037;28;20207;-68
2022/07/06 05:34:39;;;;;;;11.93;10.73;;;;;;;26.80;58.56;99263.22;5058529;28;20195;-67
2022/07/06 05:37:08;;;;;;;12.60;10.85;;;;;;;26.93;58.46;99264.28;5061368;28;20371;-67
2022/07/06 05:39:35;;;;;;;17.00;10.55;;;;;;;26.86;59.07;99265.56;5060599;28;20203;-67
2022/07/06 05:42:02;;;;;;;13.27;10.80;;;;;;;26.75;59.78;99266.09;5063163;28;20194;-67
2022/07/06 05:44:28;;;;;;;13.77;10.67;;;;;;;26.67;59.61;99268.25;5069561;28;20199;-67
2022/07/06 05:50:11;;;;;;;12.65;11.35;;;;;;;26.50;60.63;99267.47;5068438;28;20433;-66
2022/07/06 05:52:28;;;;;;;12.20;10.80;;;;;;;26.30;61.41;99271.13;5059953;28;20671;-67
2022/07/06 05:54:55;;;;;;;12.37;10.60;;;;;;;26.43;60.86;99281.84;5058107;28;20249;-67
2022/07/06 05:57:22;;;;;;;13.23;11.83;;;;;;;26.44;60.53;99278.31;5056808;28;20207;-66
2022/07/06 05:59:49;;;;;;;12.55;11.35;;;;;;;26.49;60.56;99284.19;5057128;28;20439;-66
2022/07/06 06:02:18;;;;;;;12.02;10.82;;;;;;;26.51;60.60;99285.81;5064426;28;20196;-66
2022/07/06 06:04:45;;;;;;;10.77;9.98;;;;;;;26.64;59.67;99280.78;5063294;28;20282;-66
2022/07/06 06:07:11;;;;;;;11.75;10.73;;;;;;;26.80;59.69;99276.41;5064126;28;20570;-66
2022/07/06 06:09:40;;;;;;;11.82;10.65;;;;;;;26.97;59.19;99289.56;5061316;28;20204;-67
2022/07/06 06:12:07;;;;;;;12.23;11.13;;;;;;;27.04;59.10;99296.19;5062715;28;20693;-66
2022/07/06 06:14:34;;;;;;;11.87;10.83;;;;;;;27.07;59.22;99293.41;5062911;28;20196;-67
2022/07/06 06:17:01;;;;;;;12.43;11.23;;;;;;;27.15;58.71;99287.69;5064185;28;20212;-68
2022/07/06 06:19:28;;;;;;;12.77;11.60;;;;;;;27.19;58.63;99298.03;5064289;28;20219;-66
2022/07/06 06:21:55;;;;;;;17.45;15.85;;;;;;;27.17;59.47;99297.22;5060825;28;20502;-59
2022/07/06 06:24:23;;;;;;;13.05;11.73;;;;;;;27.34;58.71;99288.38;5063565;28;20601;-58
2022/07/06 06:26:52;;;;;;;14.18;12.70;;;;;;;27.49;58.51;99285.81;5063296;28;20222;-59
2022/07/06 06:29:18;;;;;;;13.05;11.85;;;;;;;27.63;58.18;99295.59;5062165;28;20183;-58
2022/07/06 06:31:45;;;;;;;13.27;11.90;;;;;;;27.52;57.01;99293.53;5067913;28;20650;-58
2022/07/06 06:34:12;;;;;;;14.07;12.23;;;;;;;27.59;57.16;99291.41;5072875;28;20195;-67
2022/07/06 06:36:39;;;;;;;12.18;11.13;;;;;;;27.57;57.03;99295.94;5071911;28;20209;-67
2022/07/06 06:39:06;;;;;;;12.98;11.88;;;;;;;27.67;56.19;99296.25;5072158;28;20203;-67
2022/07/06 06:41:32;;;;;;;11.63;10.63;;;;;;;27.66;56.36;99297.19;5072214;28;20195;-68
2022/07/06 06:44:01;;;;;;;12.25;11.15;;;;;;;27.72;55.81;99289.75;5071303;28;20433;-68
2022/07/06 06:46:27;;;;;;;12.95;11.85;;;;;;;27.80;55.46;99297.28;5071885;28;20187;-66
2022/07/06 06:48:54;;;;;;;14.32;11.32;;;;;;;27.91;54.80;99289.56;5072228;28;20543;-68
2022/07/06 06:51:21;;;;;;;13.68;12.27;;;;;;;27.77;54.61;99298.28;5071937;28;20298;-68
2022/07/06 06:53:48;;;;;;;12.80;11.70;;;;;;;27.87;54.93;99290.69;5071055;28;20199;-67
2022/07/06 06:56:15;;;;;;;13.55;12.43;;;;;;;28.02;53.78;99300.34;5071653;28;20654;-67
2022/07/06 06:58:42;;;;;;;13.18;12.07;;;;;;;27.96;53.95;99300.72;5072121;28;20215;-67
2022/07/06 07:01:10;;;;;;;14.57;13.15;;;;;;;28.19;53.39;99288.84;5071674;28;20921;-67
2022/07/06 07:03:37;;;;;;;13.32;12.13;;;;;;;28.33;52.42;99287.09;5071909;28;20199;-68
2022/07/06 07:06:04;;;;;;;14.98;12.73;;;;;;;28.07;53.01;99298.34;5071763;28;20199;-68
2022/07/06 07:08:31;;;;;;;14.20;12.93;;;;;;;27.90;53.77;99280.81;5071687;28;20187;-68
2022/07/06 07:10:58;;;;;;;13.60;12.20;;;;;;;28.01;53.26;99285.47;5072150;28;20204;-67
2022/07/06 07:13:24;;;;;;;14.98;13.63;;;;;;;28.04;53.84;99283.53;5069871;28;20744;-68
2022/07/06 07:15:51;;;;;;;19.73;16.52;;;;;;;28.34;53.61;99278.22;5070324;28;20196;-68
2022/07/06 07:18:20;;;;;;;13.95;12.60;;;;;;;28.25;52.60;99283.19;5070872;28;20289;-67
2022/07/06 07:20:46;;;;;;;14.70;12.82;;;;;;;28.16;52.16;99249.38;5068668;28;20281;-67
2022/07/06 07:23:13;;;;;;;18.80;12.90;;;;;;;28.36;52.64;99278.13;5066687;28;20219;-68
2022/07/06 07:25:40;;;;;;;14.82;13.52;;;;;;;28.50;52.20;99281.66;5060144;28;20535;-68
2022/07/06 07:28:07;;;;;;;14.85;13.45;;;;;;;28.65;52.04;99280.75;5061428;28;20176;-67
2022/07/06 07:30:34;;;;;;;18.30;14.63;;;;;;;28.85;51.81;99278.66;5061859;28;20199;-67
2022/07/06 07:33:01;;;;;;;14.50;13.30;;;;;;;29.09;49.68;99280.63;5062578;28;20311;-67
2022/07/06 07:35:29;;;;;;;13.90;12.60;;;;;;;29.02;49.23;99275.84;5060511;28;20191;-66
2022/07/06 07:37:56;;;;;;;12.77;11.68;;;;;;;28.71;50.38;99276.88;5068313;28;20280;-67
2022/07/06 07:40:23;;;;;;;16.05;12.40;;;;;;;28.73;50.04;99272.38;5071162;28;20210;-67
2022/07/06 07:42:50;;;;;;;12.95;11.80;;;;;;;28.83;49.77;99280.56;5070886;28;20578;-67
2022/07/06 07:45:16;;;;;;;13.98;12.77;;;;;;;28.73;50.09;99282.09;5071174;28;20203;-67
2022/07/06 07:47:44;;;;;;;14.43;13.05;;;;;;;28.79;50.13;99279.06;5070282;28;20509;-66
2022/07/06 07:50:11;;;;;;;14.48;13.18;;;;;;;28.81;50.98;99278.03;5071070;28;20489;-68
2022/07/06 07:52:39;;;;;;;14.23;13.02;;;;;;;29.01;50.84;99288.22;5071164;28;20214;-68
2022/07/06 07:55:07;;;;;;;14.65;13.35;;;;;;;28.99;49.85;99283.97;5070278;28;20191;-67
2022/07/06 07:57:34;;;;;;;16.15;13.23;;;;;;;29.02;50.00;99279.34;5070245;28;20234;-67
2022/07/06 08:00:01;;;;;;;15.20;13.77;;;;;;;29.04;50.52;99273.94;5070196;28;20200;-67
2022/07/06 08:02:28;;;;;;;15.82;14.57;;;;;;;28.99;49.51;99282.16;5068467;28;20429;-67
2022/07/06 08:04:55;;;;;;;15.52;13.93;;;;;;;29.16;50.00;99276.69;5069988;28;20215;-68
2022/07/06 08:07:21;;;;;;;14.68;13.43;;;;;;;29.11;49.75;99278.78;5070194;28;20210;-67
2022/07/06 08:09:50;;;;;;;15.43;13.40;;;;;;;29.14;49.68;99272.44;5069310;28;20198;-67
2022/07/06 08:12:16;;;;;;;14.48;13.18;;;;;;;29.07;49.60;99271.09;5068956;28;20282;-69
2022/07/06 08:14:43;;;;;;;14.43;13.13;;;;;;;29.15;49.56;99277.63;5069373;28;20215;-68
2022/07/06 08:17:10;;;;;;;13.88;12.68;;;;;;;28.96;49.92;99268.28;5069034;28;20196;-68
2022/07/06 08:19:37;;;;;;;15.43;13.95;;;;;;;29.07;49.85;99277.25;5069125;28;20203;-68
2022/07/06 08:22:06;;;;;;;15.38;13.82;;;;;;;29.27;49.96;99272.53;5069368;28;20187;-67
2022/07/06 08:24:34;;;;;;;15.63;14.13;;;;;;;29.34;49.81;99272.03;5069074;28;20441;-68
2022/07/06 08:27:03;;;;;;;14.90;13.45;;;;;;;29.34;49.43;99269.38;5069838;28;20223;-68
2022/07/06 08:29:30;;;;;;;14.65;13.18;;;;;;;29.49;49.04;99264.91;5069847;28;20655;-68
2022/07/06 08:31:57;;;;;;;14.52;13.23;;;;;;;29.61;48.88;99264.13;5069724;28;20700;-68
2022/07/06 08:34:24;;;;;;;14.40;13.20;;;;;;;29.52;48.57;99251.47;5070063;28;20195;-68
2022/07/06 08:36:51;;;;;;;15.25;12.65;;;;;;;29.81;47.62;99261.88;5069655;28;20188;-68
2022/07/06 08:39:18;;;;;;;14.55;13.27;;;;;;;29.57;49.07;99263.47;5069677;28;20446;-67
2022/07/06 08:41:47;;;;;;;13.85;12.65;;;;;;;29.90;48.27;99262.22;5069949;28;20278;-67
2022/07/06 08:44:16;;;;;;;14.23;12.65;;;;;;;29.69;47.55;99265.31;5069814;28;20230;-68
2022/07/06 08:46:44;;;;;;;14.82;13.63;;;;;;;29.76;48.00;99255.16;5069609;28;20660;-68
2022/07/06 08:49:15;;;;;;;14.77;13.57;;;;;;;30.18;47.34;99272.69;5069600;28;20278;-67
2022/07/06 08:51:42;;;;;;;14.02;12.63;;;;;;;30.26;45.71;99265.91;5069452;28;20195;-67
2022/07/06 08:54:11;;;;;;;13.85;12.65;;;;;;;30.25;46.02;99266.00;5069553;28;20192;-68
2022/07/06 08:56:39;;;;;;;13.85;12.48;;;;;;;30.13;45.84;99270.34;5068989;28;20243;-68
2022/07/06 08:59:08;;;;;;;14.07;12.77;;;;;;;30.10;46.88;99264.41;5069114;28;20219;-67
2022/07/06 09:01:37;;;;;;;14.48;13.00;;;;;;;29.99;47.00;99261.63;5069216;28;20434;-68
2022/07/06 09:04:06;;;;;;;15.07;13.75;;;;;;;30.12;47.46;99262.50;5069514;28;20191;-68
2022/07/06 09:06:34;;;;;;;14.93;13.50;;;;;;;30.00;46.92;99256.22;5068964;28;20272;-68
2022/07/06 09:09:06;;;;;;;17.52;13.82;;;;;;;29.96;47.68;99256.53;5069233;28;20304;-67
2022/07/06 09:11:33;;;;;;;15.85;14.07;;;;;;;29.95;48.28;99260.97;5068877;28;20673;-68
2022/07/06 09:14:00;;;;;;;16.23;14.38;;;;;;;29.82;48.54;99262.75;5068848;28;20195;-67
2022/07/06 09:16:29;;;;;;;16.08;14.57;;;;;;;29.83;49.53;99262.63;5069385;28;20218;-67
2022/07/06 09:18:57;;;;;;;15.68;14.32;;;;;;;29.75;49.38;99264.03;5068913;28;20920;-68
2022/07/06 09:21:26;;;;;;;16.13;14.57;;;;;;;29.69;49.80;99270.63;5068928;28;20188;-68
2022/07/06 09:23:57;;;;;;;17.25;15.02;;;;;;;29.53;50.67;99272.53;5068564;28;20223;-67
2022/07/06 09:26:24;;;;;;;15.60;13.90;;;;;;;29.60;50.01;99265.91;5069597;28;20208;-68
2022/07/06 09:28:52;;;;;;;15.80;14.23;;;;;;;29.63;50.03;99256.91;5069100;28;20563;-67
2022/07/06 09:31:19;;;;;;;14.35;13.05;;;;;;;29.65;50.42;99265.59;5068974;28;20184;-68
2022/07/06 09:33:59;;;;;;;16.13;14.52;;;;;;;29.65;49.67;99278.84;5068656;28;20586;-68
2022/07/06 09:36:40;;;;;;;15.52;14.02;;;;;;;29.56;51.33;99269.69;5068267;28;20268;-67
2022/07/06 09:39:21;;;;;;;16.05;14.75;;;;;;;29.46;50.84;99268.59;5073036;28;20199;-68
2022/07/06 09:41:49;;;;;;;17.40;15.57;;;;;;;29.53;50.68;99267.25;5070923;28;20191;-68
2022/07/06 09:44:22;;;;;;;15.05;13.55;;;;;;;29.49;50.06;99263.13;5071142;28;20199;-68
2022/07/06 09:46:49;;;;;;;16.58;15.15;;;;;;;29.60;50.64;99259.78;5071655;28;20271;-68
2022/07/06 09:49:19;;;;;;;17.80;13.77;;;;;;;29.70;50.40;99256.41;5071260;28;20618;-68
2022/07/06 09:51:47;;;;;;;16.58;14.80;;;;;;;29.77;50.05;99254.22;5063031;28;20204;-68
2022/07/06 09:54:14;;;;;;;15.80;13.20;;;;;;;29.78;49.26;99248.81;5053383;28;20650;-68
2022/07/06 09:56:42;;;;;;;16.30;14.73;;;;;;;30.02;49.21;99251.69;5064694;28;20425;-68
2022/07/06 09:59:10;;;;;;;16.20;14.70;;;;;;;30.26;48.57;99249.16;5072861;28;20445;-68
2022/07/06 10:01:38;;;;;;;14.30;13.10;;;;;;;30.55;46.98;99250.69;5072792;28;20268;-68
2022/07/06 10:04:06;;;;;;;13.90;12.57;;;;;;;30.56;46.86;99241.78;5072966;28;20469;-67
2022/07/06 10:06:35;;;;;;;17.00;13.27;;;;;;;30.50;46.48;99250.16;5072923;28;20195;-67
2022/07/06 10:09:03;;;;;;;14.18;13.00;;;;;;;30.51;46.84;99237.75;5072841;28;20191;-67
2022/07/06 10:11:31;;;;;;;15.60;13.98;;;;;;;30.71;46.45;99239.88;5072558;28;20195;-67
2022/07/06 10:13:58;;;;;;;16.40;13.30;;;;;;;30.75;46.07;99236.88;5072547;28;20245;-67
2022/07/06 10:16:26;;;;;;;16.77;15.20;;;;;;;30.81;46.38;99217.88;5071814;28;20426;-67
2022/07/06 10:18:54;;;;;;;15.27;13.90;;;;;;;31.16;45.64;99238.41;5072513;28;20281;-68
2022/07/06 10:21:22;;;;;;;20.05;17.63;;;;;;;31.13;44.17;99230.66;5072504;28;20237;-68
2022/07/06 10:23:52;;;;;;;21.48;19.20;;;;;;;31.25;43.83;99229.81;5072187;28;20234;-68
2022/07/06 10:26:19;;;;;;;22.77;17.90;;;;;;;31.36;44.18;99224.56;5072279;28;20195;-68
2022/07/06 10:28:47;;;;;;;15.07;13.18;;;;;;;31.45;43.62;99223.88;5072232;28;20187;-68
2022/07/06 10:31:17;;;;;;;13.80;12.50;;;;;;;31.48;42.41;99216.56;5071965;28;20270;-68
2022/07/06 10:33:45;;;;;;;17.02;13.02;;;;;;;31.55;43.35;99214.31;5072104;28;20198;-68
2022/07/06 10:36:13;;;;;;;14.05;12.20;;;;;;;31.60;42.03;99214.81;5072570;28;20202;-68
2022/07/06 10:38:40;;;;;;;12.63;11.60;;;;;;;31.81;42.26;99212.38;5072218;28;20222;-68
2022/07/06 10:41:09;;;;;;;13.05;11.68;;;;;;;32.02;41.21;99206.31;5072110;28;20204;-67
2022/07/06 10:43:37;;;;;;;14.30;11.15;;;;;;;32.14;40.31;99203.69;5072114;28;20426;-67
2022/07/06 10:46:08;;;;;;;12.15;11.20;;;;;;;32.18;40.16;99205.97;5072686;28;20187;-67
2022/07/06 10:48:36;;;;;;;13.02;11.50;;;;;;;32.19;40.63;99196.19;5069014;28;20184;-68
2022/07/06 10:51:04;;;;;;;14.50;13.00;;;;;;;32.25;41.35;99198.38;5068644;28;20444;-67
2022/07/06 10:53:34;;;;;;;12.60;11.40;;;;;;;32.39;40.08;99200.78;5071825;28;20210;-67
2022/07/06 10:56:03;;;;;;;12.25;11.05;;;;;;;32.49;39.28;99215.09;5071660;28;20223;-67
2022/07/06 10:58:40;;;;;;;11.85;10.75;;;;;;;32.43;38.95;99200.47;5071653;28;20215;-68
2022/07/06 11:01:08;;;;;;;12.85;11.65;;;;;;;32.71;39.17;99204.50;5072277;28;20284;-67
2022/07/06 11:03:41;;;;;;;11.95;10.57;;;;;;;32.39;39.53;99198.97;5072117;28;20217;-69
2022/07/06 11:06:14;;;;;;;12.02;11.02;;;;;;;32.66;39.19;99206.66;5071893;28;20286;-68
2022/07/06 11:08:55;;;;;;;9.43;8.60;;;;;;;32.85;34.11;99196.25;5071741;28;20221;-69
2022/07/06 11:11:24;;;;;;;9.80;9.00;;;;;;;32.82;36.39;99196.50;5071715;28;20195;-68
2022/07/06 11:13:55;;;;;;;11.35;10.27;;;;;;;32.52;36.78;99189.09;5070434;28;20434;-68
2022/07/06 11:16:25;;;;;;;9.98;9.05;;;;;;;32.75;34.80;99199.75;5071673;28;20206;-69
2022/07/06 11:19:05;;;;;;;9.43;8.63;;;;;;;32.56;35.26;99185.25;5069959;28;20227;-68
2022/07/06 11:21:38;;;;;;;10.00;8.98;;;;;;;32.65;35.61;99189.00;5058305;28;20443;-69
2022/07/06 11:24:07;;;;;;;10.70;9.63;;;;;;;32.73;34.99;99183.06;5051652;28;20243;-69
2022/07/06 11:26:36;;;;;;;9.98;9.18;;;;;;;32.74;34.90;99182.97;5070979;28;20202;-69
2022/07/06 11:29:06;;;;;;;10.02;9.02;;;;;;;32.57;35.37;99181.63;5070058;28;20244;-69